Time;durP1;ratioP1;P1;durP2;ratioP2;P2;SDS_P1;SDS_P2;PMS_P1;PMS_P2;Temp;Humidity;BMP_temperature;BMP_pressure;BME280_temperature;BME280_humidity;BME280_pressure;Samples;Min_cycle;Max_cycle;Signal;HPM_P1;HPM_P2
2022/03/09 00:00:55;;;;;;;1.67;0.10;;;19.50;99.90;;;;;;5094679;28;20042;-80
2022/03/09 00:03:22;;;;;;;0.03;0.03;;;19.40;99.90;;;;;;5094511;28;20043;-83
2022/03/09 00:05:50;;;;;;;0.80;0.40;;;19.40;99.90;;;;;;5094367;28;20504;-76
2022/03/09 00:08:18;;;;;;;0.10;0.10;;;19.40;99.90;;;;;;5094422;28;20032;-82
2022/03/09 00:10:46;;;;;;;0.13;0.10;;;19.40;99.90;;;;;;5094436;28;20477;-82
2022/03/09 00:13:13;;;;;;;0.00;0.00;;;19.40;99.90;;;;;;5094156;28;20103;-82
2022/03/09 00:15:40;;;;;;;0.00;0.00;;;19.40;99.90;;;;;;5094237;28;20031;-83
2022/03/09 00:18:08;;;;;;;0.10;0.10;;;19.40;99.90;;;;;;5094081;28;20032;-81
2022/03/09 00:20:35;;;;;;;0.32;0.10;;;19.40;99.90;;;;;;5094312;28;20034;-82
2022/03/09 00:23:02;;;;;;;0.00;0.00;;;19.40;99.90;;;;;;5093968;28;20582;-81
2022/03/09 00:25:30;;;;;;;0.30;0.10;;;19.60;99.90;;;;;;5093089;28;20042;-79
2022/03/09 00:27:57;;;;;;;0.00;0.00;;;19.60;99.90;;;;;;5093458;28;20028;-83
2022/03/09 00:30:25;;;;;;;0.17;0.10;;;19.70;99.90;;;;;;5092670;28;20515;-80
2022/03/09 00:32:52;;;;;;;0.50;0.13;;;19.70;99.90;;;;;;5093996;28;20488;-76
2022/03/09 00:35:20;;;;;;;0.10;0.00;;;19.80;99.90;;;;;;5093186;28;20028;-81
2022/03/09 00:37:47;;;;;;;0.90;0.22;;;19.80;99.90;;;;;;5093740;28;20020;-78
2022/03/09 00:40:14;;;;;;;0.10;0.00;;;19.80;99.90;;;;;;5094118;28;20032;-84
2022/03/09 00:42:42;;;;;;;0.40;0.10;;;19.90;99.90;;;;;;5093745;28;20613;-82
2022/03/09 00:45:09;;;;;;;0.20;0.20;;;19.90;99.90;;;;;;5093812;28;20031;-81
2022/03/09 00:47:37;;;;;;;0.08;0.08;;;19.80;99.90;;;;;;5091549;28;20058;-76
2022/03/09 00:50:06;;;;;;;0.00;0.00;;;19.80;99.90;;;;;;5091425;28;20056;-80
2022/03/09 00:52:34;;;;;;;0.30;0.20;;;19.80;99.90;;;;;;5092244;28;20476;-83
2022/03/09 00:55:01;;;;;;;0.50;0.10;;;19.80;99.90;;;;;;5092092;28;20032;-77
2022/03/09 00:57:28;;;;;;;0.10;0.10;;;19.80;99.90;;;;;;5092207;28;20016;-77
2022/03/09 00:59:56;;;;;;;0.10;0.10;;;19.80;99.90;;;;;;5092056;28;20024;-76
2022/03/09 01:02:23;;;;;;;3.60;0.10;;;19.80;99.90;;;;;;5090858;28;20107;-80
2022/03/09 01:04:51;;;;;;;0.10;0.10;;;19.80;99.90;;;;;;5092001;28;20534;-76
2022/03/09 01:07:18;;;;;;;0.30;0.10;;;19.80;99.90;;;;;;5090344;28;20077;-80
2022/03/09 01:09:46;;;;;;;1.63;0.10;;;19.80;99.90;;;;;;5091902;28;20031;-82
2022/03/09 01:12:13;;;;;;;0.25;0.10;;;19.80;99.90;;;;;;5089797;28;20699;-80
2022/03/09 01:14:40;;;;;;;0.40;0.10;;;20.00;99.90;;;;;;5092535;28;20082;-77
2022/03/09 01:17:08;;;;;;;0.00;0.00;;;20.00;99.90;;;;;;5092825;28;20024;-75
2022/03/09 01:19:35;;;;;;;0.15;0.15;;;20.00;99.90;;;;;;5092872;28;20074;-76
2022/03/09 01:22:02;;;;;;;1.88;0.10;;;20.10;99.90;;;;;;5092696;28;20112;-76
2022/03/09 01:24:30;;;;;;;0.10;0.10;;;20.10;99.90;;;;;;5092470;28;20103;-76
2022/03/09 01:26:57;;;;;;;0.20;0.20;;;20.10;99.90;;;;;;5091581;28;20020;-76
2022/03/09 01:29:24;;;;;;;0.20;0.20;;;20.10;99.90;;;;;;5090907;28;20016;-76
2022/03/09 01:31:52;;;;;;;0.22;0.10;;;20.00;99.90;;;;;;5092246;28;20028;-76
2022/03/09 01:34:19;;;;;;;0.20;0.10;;;20.00;99.90;;;;;;5091340;28;20473;-81
2022/03/09 01:36:46;;;;;;;0.22;0.20;;;20.00;99.90;;;;;;5092251;28;20035;-79
2022/03/09 01:39:14;;;;;;;1.65;0.50;;;19.90;99.90;;;;;;5092266;28;20024;-82
2022/03/09 01:41:41;;;;;;;0.10;0.10;;;19.90;99.90;;;;;;5093098;28;20028;-77
2022/03/09 01:44:13;;;;;;;0.10;0.10;;;19.90;99.90;;;;;;5090984;28;20013;-77
2022/03/09 01:46:41;;;;;;;1.08;0.28;;;19.80;99.90;;;;;;5093780;28;20103;-82
2022/03/09 01:49:10;;;;;;;0.10;0.10;;;19.80;99.90;;;;;;5094515;28;20115;-75
2022/03/09 01:51:41;;;;;;;0.22;0.20;;;19.80;99.90;;;;;;5094634;28;20072;-81
2022/03/09 01:54:08;;;;;;;1.00;0.30;;;19.70;99.90;;;;;;5095419;28;20024;-79
2022/03/09 01:56:37;;;;;;;0.10;0.10;;;19.70;99.90;;;;;;5095871;28;20061;-77
2022/03/09 01:59:06;;;;;;;0.10;0.10;;;19.70;99.90;;;;;;5095406;28;20056;-80
2022/03/09 02:01:34;;;;;;;0.10;0.10;;;19.70;99.90;;;;;;5096929;28;20101;-76
2022/03/09 02:04:03;;;;;;;0.63;0.28;;;19.70;99.90;;;;;;5095477;28;20346;-75
2022/03/09 02:06:33;;;;;;;0.40;0.20;;;19.70;99.90;;;;;;5096832;28;20046;-75
2022/03/09 02:11:48;;;;;;;0.40;0.10;;;19.80;99.90;;;;;;5096565;28;20400;-85
2022/03/09 02:14:27;;;;;;;0.82;0.15;;;19.90;99.90;;;;;;5096464;28;20061;-76
2022/03/09 02:16:56;;;;;;;0.20;0.10;;;20.00;99.90;;;;;;5096575;28;20031;-77
2022/03/09 02:19:24;;;;;;;1.10;0.20;;;20.00;99.90;;;;;;5095316;28;20081;-77
2022/03/09 02:21:56;;;;;;;1.45;0.10;;;20.00;99.90;;;;;;5096473;28;20020;-76
2022/03/09 02:24:25;;;;;;;0.10;0.10;;;20.00;99.90;;;;;;5096673;28;20051;-76
2022/03/09 02:26:52;;;;;;;0.10;0.10;;;20.00;99.90;;;;;;5094934;28;20024;-75
2022/03/09 02:29:20;;;;;;;0.10;0.10;;;20.10;99.90;;;;;;5096297;28;20081;-76
2022/03/09 02:31:47;;;;;;;0.88;0.20;;;20.00;99.90;;;;;;5096278;28;20115;-85
2022/03/09 02:34:14;;;;;;;0.20;0.20;;;20.00;99.90;;;;;;5096617;28;20432;-83
2022/03/09 02:36:42;;;;;;;0.20;0.13;;;20.00;99.90;;;;;;5096382;28;20403;-83
2022/03/09 02:39:09;;;;;;;0.77;0.28;;;20.00;99.90;;;;;;5095960;28;20070;-84
2022/03/09 02:41:36;;;;;;;0.20;0.20;;;20.00;99.90;;;;;;5096081;28;20023;-84
2022/03/09 02:44:04;;;;;;;0.20;0.10;;;20.00;99.90;;;;;;5096033;28;20028;-75
2022/03/09 02:46:32;;;;;;;0.17;0.10;;;20.00;99.90;;;;;;5095959;28;20020;-77
2022/03/09 02:48:59;;;;;;;0.20;0.10;;;20.10;99.90;;;;;;5094396;28;20047;-81
2022/03/09 02:51:29;;;;;;;0.15;0.10;;;20.10;99.90;;;;;;5096025;28;20096;-77
2022/03/09 02:53:57;;;;;;;0.35;0.15;;;20.10;99.90;;;;;;5095946;28;20031;-78
2022/03/09 02:56:24;;;;;;;0.15;0.13;;;20.10;99.90;;;;;;5095986;28;20024;-86
2022/03/09 02:58:52;;;;;;;0.75;0.45;;;20.20;99.90;;;;;;5094976;28;20465;-77
2022/03/09 03:01:19;;;;;;;0.10;0.10;;;20.20;99.90;;;;;;5095813;28;20495;-75
2022/03/09 03:03:46;;;;;;;0.05;0.03;;;20.30;99.90;;;;;;5095652;28;20017;-75
2022/03/09 03:06:14;;;;;;;0.45;0.17;;;20.40;99.90;;;;;;5095770;28;20469;-76
2022/03/09 03:08:42;;;;;;;2.17;0.20;;;20.50;99.90;;;;;;5095703;28;20032;-78
2022/03/09 03:11:11;;;;;;;0.43;0.43;;;20.50;99.90;;;;;;5095381;28;20042;-77
2022/03/09 03:13:39;;;;;;;0.22;0.13;;;20.60;99.90;;;;;;5093609;28;20544;-79
2022/03/09 03:16:11;;;;;;;0.73;0.17;;;20.60;99.90;;;;;;5094089;28;20028;-76
2022/03/09 03:18:41;;;;;;;0.10;0.10;;;20.70;99.90;;;;;;5093613;28;20036;-76
2022/03/09 03:21:09;;;;;;;0.10;0.10;;;20.70;99.90;;;;;;5094084;28;20020;-81
2022/03/09 03:23:37;;;;;;;0.40;0.20;;;20.70;99.90;;;;;;5095207;28;20554;-78
2022/03/09 03:26:05;;;;;;;0.20;0.20;;;20.70;99.90;;;;;;5094451;28;20078;-80
2022/03/09 03:28:33;;;;;;;0.65;0.20;;;20.80;99.90;;;;;;5094582;28;20023;-81
2022/03/09 03:31:01;;;;;;;0.35;0.10;;;20.70;99.90;;;;;;5094383;28;20028;-77
2022/03/09 03:33:28;;;;;;;0.28;0.17;;;20.70;99.90;;;;;;5094343;28;20140;-81
2022/03/09 03:35:56;;;;;;;0.30;0.20;;;20.80;99.90;;;;;;5094021;28;20016;-77
2022/03/09 03:38:23;;;;;;;3.45;0.40;;;20.80;99.90;;;;;;5094355;28;20016;-80
2022/03/09 03:40:50;;;;;;;0.17;0.17;;;20.80;99.90;;;;;;5094003;28;20099;-76
2022/03/09 03:43:18;;;;;;;0.70;0.15;;;20.80;99.90;;;;;;5094925;28;20035;-75
2022/03/09 03:45:45;;;;;;;0.90;0.20;;;20.80;99.90;;;;;;5092716;28;20031;-76
2022/03/09 03:48:12;;;;;;;0.28;0.28;;;20.90;99.90;;;;;;5094205;28;20024;-80
2022/03/09 03:50:40;;;;;;;0.50;0.10;;;20.90;99.90;;;;;;5093490;28;20092;-80
2022/03/09 03:53:07;;;;;;;1.38;0.32;;;21.00;99.90;;;;;;5094067;28;20013;-75
2022/03/09 03:55:34;;;;;;;1.17;0.20;;;21.10;99.90;;;;;;5093693;28;20024;-79
2022/03/09 03:58:02;;;;;;;0.30;0.20;;;21.10;99.90;;;;;;5093271;28;20016;-78
2022/03/09 04:00:29;;;;;;;2.72;0.10;;;21.10;99.90;;;;;;5094159;28;20020;-79
2022/03/09 04:02:56;;;;;;;0.30;0.20;;;21.10;99.90;;;;;;5094285;28;20040;-76
2022/03/09 04:05:24;;;;;;;1.15;0.40;;;21.00;99.90;;;;;;5094083;28;20028;-76
2022/03/09 04:07:51;;;;;;;0.43;0.20;;;21.00;99.90;;;;;;5093165;28;20358;-77
2022/03/09 04:10:18;;;;;;;2.17;0.15;;;21.00;99.90;;;;;;5090205;28;20151;-75
2022/03/09 04:12:46;;;;;;;0.10;0.10;;;21.00;99.90;;;;;;5094824;28;20025;-76
2022/03/09 04:15:13;;;;;;;0.03;0.03;;;20.90;99.90;;;;;;5094982;28;20047;-76
2022/03/09 04:17:45;;;;;;;0.93;0.28;;;20.90;99.90;;;;;;5090664;28;20016;-81
2022/03/09 04:20:14;;;;;;;0.43;0.30;;;20.90;99.90;;;;;;5093988;28;20354;-79
2022/03/09 04:22:43;;;;;;;0.52;0.20;;;20.90;99.90;;;;;;5091129;28;20016;-76
2022/03/09 04:25:11;;;;;;;0.75;0.20;;;20.90;99.90;;;;;;5091299;28;20103;-78
2022/03/09 04:27:39;;;;;;;2.63;0.57;;;20.80;99.90;;;;;;5090496;28;20491;-76
2022/03/09 04:30:08;;;;;;;0.20;0.10;;;20.80;99.90;;;;;;5093222;28;20032;-76
2022/03/09 04:32:36;;;;;;;0.17;0.10;;;20.80;99.90;;;;;;5097218;28;20020;-75
2022/03/09 04:35:05;;;;;;;0.82;0.10;;;20.80;99.90;;;;;;5092588;28;20020;-75
2022/03/09 04:37:33;;;;;;;0.50;0.20;;;20.70;99.90;;;;;;5093272;28;20027;-75
2022/03/09 04:40:01;;;;;;;0.10;0.10;;;20.70;99.90;;;;;;5095085;28;20108;-77
2022/03/09 04:42:29;;;;;;;0.20;0.20;;;20.70;99.90;;;;;;5102180;28;20047;-75
2022/03/09 04:44:57;;;;;;;0.20;0.10;;;20.70;99.90;;;;;;5093036;28;20098;-75
2022/03/09 04:47:24;;;;;;;0.10;0.10;;;20.70;99.90;;;;;;5092988;28;20028;-75
2022/03/09 04:49:52;;;;;;;0.30;0.10;;;20.80;99.90;;;;;;5092905;28;20048;-75
2022/03/09 04:52:20;;;;;;;0.15;0.10;;;20.80;99.90;;;;;;5096284;28;20032;-83
2022/03/09 04:54:47;;;;;;;1.92;0.20;;;20.80;99.90;;;;;;5098180;28;20016;-75
2022/03/09 04:57:15;;;;;;;0.57;0.00;;;20.80;99.90;;;;;;5094264;28;20031;-76
2022/03/09 04:59:42;;;;;;;1.00;0.30;;;20.90;99.90;;;;;;5093511;28;20428;-77
2022/03/09 05:02:10;;;;;;;0.17;0.10;;;21.00;99.90;;;;;;5092656;28;20056;-76
2022/03/09 05:04:37;;;;;;;0.32;0.13;;;21.00;99.90;;;;;;5092948;28;20074;-76
2022/03/09 05:07:05;;;;;;;0.40;0.30;;;21.00;99.90;;;;;;5096638;28;20069;-75
2022/03/09 05:09:33;;;;;;;0.15;0.15;;;21.10;99.90;;;;;;5091082;28;20047;-76
2022/03/09 05:12:01;;;;;;;0.85;0.17;;;21.10;99.90;;;;;;5092684;28;20032;-75
2022/03/09 05:14:28;;;;;;;1.17;0.17;;;21.00;99.90;;;;;;5086398;28;20477;-77
2022/03/09 05:16:56;;;;;;;0.10;0.10;;;20.90;99.90;;;;;;5095069;28;20361;-75
2022/03/09 05:19:23;;;;;;;3.28;0.50;;;20.90;99.90;;;;;;5096415;28;20379;-76
2022/03/09 05:21:50;;;;;;;1.23;0.30;;;20.80;99.90;;;;;;5108738;28;20099;-74
2022/03/09 05:24:18;;;;;;;1.88;0.20;;;20.80;99.90;;;;;;5110839;28;20038;-77
2022/03/09 05:26:46;;;;;;;1.15;0.30;;;20.80;99.90;;;;;;5102929;28;20069;-75
2022/03/09 05:29:16;;;;;;;0.47;0.13;;;20.80;99.90;;;;;;5093919;28;20028;-76
2022/03/09 05:31:45;;;;;;;0.28;0.08;;;20.80;99.90;;;;;;5094419;28;20063;-76
2022/03/09 05:34:13;;;;;;;1.55;0.43;;;20.80;99.90;;;;;;5094470;28;20480;-77
2022/03/09 05:36:42;;;;;;;0.20;0.10;;;20.80;99.90;;;;;;5093250;28;20051;-77
2022/03/09 05:39:10;;;;;;;0.57;0.20;;;20.80;99.90;;;;;;5095019;28;20540;-75
2022/03/09 05:41:37;;;;;;;0.20;0.10;;;20.80;99.90;;;;;;5095377;28;20047;-77
2022/03/09 05:44:06;;;;;;;0.90;0.10;;;20.80;99.90;;;;;;5095343;28;20020;-75
2022/03/09 05:46:34;;;;;;;0.32;0.20;;;20.80;99.90;;;;;;5096092;28;20026;-74
2022/03/09 05:49:02;;;;;;;0.57;0.52;;;20.80;99.90;;;;;;5093921;28;20082;-75
2022/03/09 05:51:29;;;;;;;0.20;0.10;;;20.90;99.90;;;;;;5096537;28;20110;-75
2022/03/09 05:53:56;;;;;;;0.65;0.20;;;21.00;99.90;;;;;;5096549;28;20027;-77
2022/03/09 05:56:25;;;;;;;0.55;0.30;;;21.00;99.90;;;;;;5096612;28;20055;-75
2022/03/09 05:58:52;;;;;;;0.10;0.05;;;21.10;99.90;;;;;;5096250;28;20469;-75
2022/03/09 06:01:21;;;;;;;0.10;0.10;;;21.20;99.90;;;;;;5093493;28;20024;-75
2022/03/09 06:03:48;;;;;;;0.10;0.10;;;21.30;99.90;;;;;;5096354;28;20016;-75
2022/03/09 06:06:15;;;;;;;2.10;0.20;;;21.40;99.90;;;;;;5096444;28;20098;-74
2022/03/09 06:08:43;;;;;;;0.47;0.10;;;21.40;99.90;;;;;;5096207;28;20020;-75
2022/03/09 06:11:10;;;;;;;1.75;0.22;;;21.30;99.90;;;;;;5096012;28;20036;-75
2022/03/09 06:13:37;;;;;;;0.50;0.10;;;21.20;99.90;;;;;;5096209;28;20023;-75
2022/03/09 06:16:05;;;;;;;0.30;0.10;;;21.10;99.90;;;;;;5096257;28;20024;-74
2022/03/09 06:18:33;;;;;;;0.10;0.10;;;21.10;99.90;;;;;;5096037;28;20016;-77
2022/03/09 06:21:00;;;;;;;0.05;0.05;;;21.00;99.90;;;;;;5093423;28;20473;-75
2022/03/09 06:23:27;;;;;;;1.00;0.13;;;21.00;99.90;;;;;;5096160;28;20487;-75
2022/03/09 06:25:55;;;;;;;0.38;0.15;;;20.90;99.90;;;;;;5090155;28;20059;-75
2022/03/09 06:28:22;;;;;;;1.45;0.22;;;20.90;99.90;;;;;;5094077;28;20020;-74
2022/03/09 06:30:50;;;;;;;0.25;0.20;;;20.80;99.90;;;;;;5095765;28;20024;-78
2022/03/09 06:33:17;;;;;;;0.68;0.10;;;20.80;99.90;;;;;;5094390;28;20042;-75
2022/03/09 06:35:45;;;;;;;0.43;0.10;;;20.80;99.90;;;;;;5095738;28;20027;-75
2022/03/09 06:38:13;;;;;;;0.45;0.10;;;20.80;99.90;;;;;;5095582;28;20017;-78
2022/03/09 06:40:40;;;;;;;0.22;0.08;;;20.80;99.90;;;;;;5091502;28;20036;-75
2022/03/09 06:43:08;;;;;;;0.80;0.20;;;20.70;99.90;;;;;;5095211;28;20020;-78
2022/03/09 06:45:36;;;;;;;0.10;0.10;;;20.70;99.90;;;;;;5095349;28;20060;-76
2022/03/09 06:48:07;;;;;;;0.45;0.28;;;20.70;99.90;;;;;;5095440;28;20027;-78
2022/03/09 06:50:35;;;;;;;0.32;0.10;;;20.60;99.90;;;;;;5095131;28;20147;-76
2022/03/09 06:53:03;;;;;;;0.20;0.10;;;20.60;99.90;;;;;;5095379;28;20099;-75
2022/03/09 06:55:30;;;;;;;0.75;0.10;;;20.60;99.90;;;;;;5095481;28;20073;-75
2022/03/09 06:57:57;;;;;;;0.55;0.20;;;20.60;99.90;;;;;;5092360;28;20960;-76
2022/03/09 07:00:25;;;;;;;0.10;0.10;;;20.50;99.90;;;;;;5094072;28;20024;-75
2022/03/09 07:02:53;;;;;;;2.40;0.20;;;20.50;99.90;;;;;;5094194;28;20027;-76
2022/03/09 07:05:20;;;;;;;0.20;0.20;;;20.50;99.90;;;;;;5091393;28;20027;-76
2022/03/09 07:07:48;;;;;;;0.30;0.20;;;20.50;99.90;;;;;;5093925;28;20055;-79
2022/03/09 07:10:15;;;;;;;0.22;0.10;;;20.50;99.90;;;;;;5093663;28;20058;-75
2022/03/09 07:12:45;;;;;;;0.20;0.10;;;20.40;99.90;;;;;;5093726;28;20081;-80
2022/03/09 07:15:13;;;;;;;3.53;0.45;;;20.40;99.90;;;;;;5093186;28;20472;-75
2022/03/09 07:17:40;;;;;;;0.20;0.20;;;20.40;99.90;;;;;;5089272;28;20110;-77
2022/03/09 07:20:10;;;;;;;0.57;0.20;;;20.40;99.90;;;;;;5091053;28;20028;-76
2022/03/09 07:22:37;;;;;;;8.52;0.30;;;20.30;99.90;;;;;;5092517;28;20028;-76
2022/03/09 07:25:05;;;;;;;1.10;0.20;;;20.30;99.90;;;;;;5092869;28;20020;-82
2022/03/09 07:27:32;;;;;;;1.38;0.63;;;20.30;99.90;;;;;;5092872;28;20556;-77
2022/03/09 07:30:00;;;;;;;12.57;5.03;;;20.20;99.90;;;;;;5088970;28;20100;-76
2022/03/09 07:32:27;;;;;;;18.48;4.18;;;20.10;99.90;;;;;;5093038;28;20020;-75
2022/03/09 07:34:54;;;;;;;0.82;0.40;;;20.10;99.90;;;;;;5092950;28;20070;-76
2022/03/09 07:37:22;;;;;;;6.68;1.75;;;20.00;99.90;;;;;;5093005;28;20032;-75
2022/03/09 07:39:49;;;;;;;1.00;0.30;;;20.00;99.90;;;;;;5093040;28;20477;-75
2022/03/09 07:42:17;;;;;;;0.93;0.43;;;20.00;99.90;;;;;;5092912;28;20035;-75
2022/03/09 07:44:45;;;;;;;1.55;0.63;;;19.90;99.90;;;;;;5092379;28;20064;-75
2022/03/09 07:47:12;;;;;;;1.45;0.52;;;19.90;99.90;;;;;;5092572;28;20020;-80
2022/03/09 07:49:39;;;;;;;2.53;1.00;;;19.90;99.90;;;;;;5092940;28;20512;-76
2022/03/09 07:52:07;;;;;;;4.03;1.10;;;19.80;99.90;;;;;;5092675;28;20503;-77
2022/03/09 07:54:34;;;;;;;7.40;1.33;;;19.80;99.90;;;;;;5082978;28;20016;-77
2022/03/09 07:57:02;;;;;;;6.13;1.38;;;19.70;99.90;;;;;;5075933;28;20032;-77
2022/03/09 07:59:29;;;;;;;7.32;1.83;;;19.70;99.90;;;;;;5074759;28;20017;-81
2022/03/09 08:01:56;;;;;;;5.00;1.42;;;19.60;99.90;;;;;;5072055;28;20017;-76
2022/03/09 08:04:25;;;;;;;9.30;2.17;;;19.50;99.90;;;;;;5071970;28;20029;-76
2022/03/09 08:06:54;;;;;;;10.88;1.60;;;19.50;99.90;;;;;;5076306;28;20028;-76
2022/03/09 08:09:21;;;;;;;10.02;1.95;;;19.40;99.90;;;;;;5073750;28;20469;-81
2022/03/09 08:11:49;;;;;;;10.02;1.85;;;19.40;99.90;;;;;;5090151;28;20450;-79
2022/03/09 08:14:16;;;;;;;6.80;1.90;;;19.40;99.90;;;;;;5093174;28;20074;-76
2022/03/09 08:16:43;;;;;;;9.27;2.20;;;19.30;99.90;;;;;;5092585;28;20027;-76
2022/03/09 08:19:11;;;;;;;6.70;2.70;;;19.30;99.90;;;;;;5092307;28;20043;-84
2022/03/09 08:21:38;;;;;;;11.95;1.77;;;19.30;99.90;;;;;;5092679;28;20017;-81
2022/03/09 08:24:07;;;;;;;5.82;1.88;;;19.20;99.90;;;;;;5075610;28;20436;-76
2022/03/09 08:26:34;;;;;;;7.30;2.15;;;19.10;99.90;;;;;;5074163;28;20098;-78
2022/03/09 08:29:01;;;;;;;6.28;2.17;;;19.10;99.90;;;;;;5071937;28;20056;-76
2022/03/09 08:31:29;;;;;;;6.55;2.33;;;19.00;99.90;;;;;;5073257;28;20534;-78
2022/03/09 08:33:56;;;;;;;9.57;1.90;;;18.90;99.90;;;;;;5073864;28;20020;-85
2022/03/09 08:36:24;;;;;;;7.82;2.55;;;18.90;99.90;;;;;;5075068;28;20036;-76
2022/03/09 08:38:51;;;;;;;6.45;2.00;;;18.80;99.90;;;;;;5073330;28;20506;-77
2022/03/09 08:41:21;;;;;;;18.40;2.85;;;18.80;99.90;;;;;;5071139;28;20101;-77
2022/03/09 08:43:48;;;;;;;14.57;1.92;;;18.80;99.90;;;;;;5073527;28;20412;-80
2022/03/09 08:46:16;;;;;;;9.52;2.47;;;18.70;99.90;;;;;;5078743;28;20100;-76
2022/03/09 08:48:45;;;;;;;11.98;2.28;;;18.70;99.90;;;;;;5085056;28;20936;-76
2022/03/09 08:51:13;;;;;;;5.53;1.63;;;18.60;99.90;;;;;;5074057;28;20025;-77
2022/03/09 08:53:41;;;;;;;5.93;1.95;;;18.60;99.90;;;;;;5073265;28;20120;-77
2022/03/09 08:56:08;;;;;;;9.52;2.08;;;18.50;99.90;;;;;;5072769;28;20050;-76
2022/03/09 08:58:39;;;;;;;10.50;2.45;;;18.50;99.90;;;;;;5072624;28;20035;-81
2022/03/09 09:01:06;;;;;;;8.57;1.83;;;18.50;99.90;;;;;;5072633;28;20029;-79
2022/03/09 09:03:33;;;;;;;10.07;1.98;;;18.50;99.90;;;;;;5072683;28;20020;-78
2022/03/09 09:06:02;;;;;;;12.25;2.28;;;18.40;99.90;;;;;;5073739;28;20531;-76
2022/03/09 09:08:29;;;;;;;10.07;2.58;;;18.30;99.90;;;;;;5070814;28;20024;-75
2022/03/09 09:10:56;;;;;;;9.07;2.45;;;18.30;99.90;;;;;;5069517;28;20072;-76
2022/03/09 09:13:23;;;;;;;9.02;2.15;;;18.30;99.90;;;;;;5072697;28;20492;-82
2022/03/09 09:15:51;;;;;;;10.98;2.45;;;18.20;99.90;;;;;;5071135;28;20025;-83
2022/03/09 09:18:18;;;;;;;7.75;1.50;;;18.20;99.90;;;;;;5073665;28;20531;-76
2022/03/09 09:20:45;;;;;;;15.30;1.80;;;18.20;99.90;;;;;;5072131;28;20406;-77
2022/03/09 09:23:13;;;;;;;7.47;1.77;;;18.20;99.90;;;;;;5071847;28;20017;-76
2022/03/09 09:25:40;;;;;;;7.90;1.98;;;18.10;99.90;;;;;;5071948;28;20044;-76
2022/03/09 09:28:07;;;;;;;7.63;1.13;;;18.10;99.90;;;;;;5074501;28;20016;-76
2022/03/09 09:30:35;;;;;;;3.65;1.35;;;18.10;99.90;;;;;;5074953;28;20031;-77
2022/03/09 09:33:02;;;;;;;7.75;1.92;;;18.10;99.90;;;;;;5072288;28;20020;-80
2022/03/09 09:35:30;;;;;;;4.15;1.13;;;18.10;99.90;;;;;;5076700;28;20040;-75
2022/03/09 09:38:06;;;;;;;6.45;1.95;;;18.10;99.90;;;;;;5072311;28;20079;-81
2022/03/09 09:40:35;;;;;;;14.82;2.67;;;18.00;99.90;;;;;;5072062;28;20381;-77
2022/03/09 09:43:08;;;;;;;8.15;1.90;;;18.00;99.90;;;;;;5072074;28;20477;-75
2022/03/09 09:45:36;;;;;;;12.18;2.00;;;18.00;99.90;;;;;;5072514;28;20036;-76
2022/03/09 09:48:04;;;;;;;7.28;2.15;;;18.00;99.90;;;;;;5073786;28;20017;-76
2022/03/09 09:50:32;;;;;;;13.13;1.80;;;18.00;99.90;;;;;;5072519;28;20059;-76
2022/03/09 09:53:02;;;;;;;6.75;1.55;;;17.90;99.90;;;;;;5072375;28;20127;-76
2022/03/09 09:55:30;;;;;;;9.15;1.70;;;17.90;99.90;;;;;;5076065;28;20385;-76
2022/03/09 09:57:57;;;;;;;11.82;1.80;;;17.90;99.90;;;;;;5089783;28;20020;-83
2022/03/09 10:00:25;;;;;;;3.63;1.90;;;17.90;99.90;;;;;;5090367;28;20028;-77
2022/03/09 10:02:53;;;;;;;8.18;2.53;;;17.90;99.90;;;;;;5089805;28;20028;-82
2022/03/09 10:05:21;;;;;;;5.82;1.80;;;17.80;99.90;;;;;;5089886;28;20380;-76
2022/03/09 10:08:07;;;;;;;12.48;2.22;;;17.80;99.90;;;;;;5093179;28;20544;-83
2022/03/09 10:10:36;;;;;;;8.70;1.98;;;17.70;99.90;;;;;;5093975;28;20028;-75
2022/03/09 10:13:21;;;;;;;12.27;2.42;;;17.70;99.90;;;;;;5094176;28;20058;-75
2022/03/09 10:16:10;;;;;;;10.55;1.27;;;17.70;99.90;;;;;;5092668;28;20488;-78
2022/03/09 10:18:38;;;;;;;10.55;1.63;;;17.70;99.90;;;;;;5092184;28;20015;-76
2022/03/09 10:21:17;;;;;;;6.07;1.65;;;17.60;99.90;;;;;;5093441;28;20040;-75
2022/03/09 10:23:55;;;;;;;6.55;1.45;;;17.60;99.90;;;;;;5093882;28;20491;-77
2022/03/09 10:26:44;;;;;;;5.47;1.25;;;17.60;99.90;;;;;;5092574;28;20111;-76
2022/03/09 10:29:14;;;;;;;11.43;2.03;;;17.60;99.90;;;;;;5093189;28;20035;-74
2022/03/09 10:31:46;;;;;;;7.78;1.85;;;17.50;99.90;;;;;;5093622;28;20024;-81
2022/03/09 10:34:24;;;;;;;9.25;1.42;;;17.50;99.90;;;;;;5093311;28;20031;-78
2022/03/09 10:36:59;;;;;;;10.40;2.03;;;17.50;99.90;;;;;;5093535;28;20016;-75
2022/03/09 10:39:32;;;;;;;6.35;1.55;;;17.40;99.90;;;;;;5089664;28;20035;-75
2022/03/09 10:41:59;;;;;;;9.60;1.90;;;17.40;99.90;;;;;;5091960;28;20055;-76
2022/03/09 10:44:48;;;;;;;8.77;2.25;;;17.40;99.90;;;;;;5092510;28;20039;-77
2022/03/09 10:47:37;;;;;;;7.53;2.40;;;17.40;99.90;;;;;;5093015;28;20027;-75
2022/03/09 10:50:24;;;;;;;10.15;2.58;;;17.30;99.90;;;;;;5093454;28;20072;-74
2022/03/09 10:53:06;;;;;;;6.78;1.30;;;17.30;99.90;;;;;;5088742;28;20028;-76
2022/03/09 10:55:35;;;;;;;8.63;2.00;;;17.30;99.90;;;;;;5093756;28;20077;-75
2022/03/09 10:58:16;;;;;;;10.65;2.10;;;17.30;99.90;;;;;;5093173;28;20024;-76
2022/03/09 11:00:49;;;;;;;14.27;2.90;;;17.30;99.90;;;;;;5092501;28;20020;-78
2022/03/09 11:03:26;;;;;;;10.48;2.25;;;17.20;99.90;;;;;;5093084;28;20070;-76
2022/03/09 11:06:07;;;;;;;10.48;2.53;;;17.20;99.90;;;;;;5083294;28;20677;-75
2022/03/09 11:08:39;;;;;;;9.77;1.70;;;17.20;99.90;;;;;;5086205;28;20027;-75
2022/03/09 11:11:09;;;;;;;7.65;1.40;;;17.20;99.90;;;;;;5093009;28;20572;-75
2022/03/09 11:13:44;;;;;;;13.15;2.10;;;17.10;99.90;;;;;;5093485;28;20027;-75
2022/03/09 11:16:20;;;;;;;7.32;2.28;;;17.10;99.90;;;;;;5090189;28;20396;-75
2022/03/09 11:18:47;;;;;;;;;;;17.10;99.90;;;;;;5092479;28;20397;-80
2022/03/09 11:21:17;;;;;;;15.38;2.42;;;17.10;99.90;;;;;;5094560;28;19957;-75
2022/03/09 11:23:45;;;;;;;9.95;1.70;;;17.10;99.90;;;;;;5093591;28;20008;-75
2022/03/09 11:26:25;;;;;;;10.35;2.60;;;17.10;99.90;;;;;;5094086;28;20020;-78
2022/03/09 11:29:05;;;;;;;7.82;2.90;;;17.10;99.90;;;;;;5094084;28;20103;-75
2022/03/09 11:31:52;;;;;;;12.05;2.70;;;17.10;99.90;;;;;;5093983;28;20031;-75
2022/03/09 11:34:38;;;;;;;7.50;2.58;;;17.10;99.90;;;;;;5094214;28;20103;-74
2022/03/09 11:37:20;;;;;;;9.47;3.60;;;17.00;99.90;;;;;;5093920;28;20023;-74
2022/03/09 11:40:13;;;;;;;16.42;3.35;;;17.00;99.90;;;;;;5093280;28;20032;-75
2022/03/09 11:42:45;;;;;;;10.18;2.67;;;17.00;99.90;;;;;;5093861;28;20016;-75
2022/03/09 11:45:17;;;;;;;25.67;3.85;;;16.90;99.90;;;;;;5090026;28;20027;-75
2022/03/09 11:48:09;;;;;;;12.32;2.50;;;16.90;99.90;;;;;;5090780;28;20028;-82
2022/03/09 11:51:03;;;;;;;7.82;2.47;;;16.90;99.90;;;;;;5091889;28;20074;-82
2022/03/09 11:53:43;;;;;;;13.23;2.53;;;16.90;99.90;;;;;;5089989;28;20027;-77
2022/03/09 11:56:27;;;;;;;9.73;3.60;;;16.80;99.90;;;;;;5092961;28;20376;-75
2022/03/09 11:59:18;;;;;;;8.93;1.90;;;16.80;99.90;;;;;;5092238;28;20016;-75
2022/03/09 12:01:59;;;;;;;10.77;2.58;;;16.80;99.90;;;;;;5094222;28;20016;-75
2022/03/09 12:04:51;;;;;;;12.18;2.88;;;16.80;99.90;;;;;;5094099;28;20028;-75
2022/03/09 12:07:46;;;;;;;6.72;2.30;;;16.80;99.90;;;;;;5089126;28;20499;-77
2022/03/09 12:10:17;;;;;;;13.38;2.97;;;16.80;99.90;;;;;;5091167;28;20111;-75
2022/03/09 12:13:09;;;;;;;13.60;2.45;;;16.80;99.90;;;;;;5090154;28;20494;-75
2022/03/09 12:16:12;;;;;;;13.18;2.58;;;16.80;99.90;;;;;;5091672;28;20024;-75
2022/03/09 12:18:50;;;;;;;10.55;2.63;;;16.80;99.90;;;;;;5091800;28;20027;-76
2022/03/09 12:22:05;;;;;;;11.00;2.75;;;16.80;99.90;;;;;;5091234;28;20093;-76
2022/03/09 12:24:39;;;;;;;10.88;2.05;;;16.80;99.90;;;;;;5084180;28;20123;-75
2022/03/09 12:27:24;;;;;;;13.82;2.50;;;16.80;99.90;;;;;;5089786;28;20032;-76
2022/03/09 12:29:52;;;;;;;7.07;2.23;;;16.80;99.90;;;;;;5089874;28;20012;-74
2022/03/09 12:32:22;;;;;;;7.65;2.83;;;16.70;99.90;;;;;;5090417;28;20280;-76
2022/03/09 12:34:53;;;;;;;11.90;1.95;;;16.70;99.90;;;;;;5092227;28;20016;-75
2022/03/09 12:37:24;;;;;;;7.45;1.75;;;16.70;99.90;;;;;;5092902;28;20058;-74
2022/03/09 12:40:02;;;;;;;11.80;1.83;;;16.60;99.90;;;;;;5092643;28;20082;-75
2022/03/09 12:42:31;;;;;;;5.88;1.58;;;16.60;99.90;;;;;;5091263;28;20048;-81
2022/03/09 12:45:02;;;;;;;5.40;1.40;;;16.60;99.90;;;;;;5092629;28;20223;-75
2022/03/09 12:47:34;;;;;;;6.35;1.58;;;16.60;99.90;;;;;;5093142;28;20020;-75
2022/03/09 12:50:03;;;;;;;5.38;1.50;;;16.60;99.90;;;;;;5090043;28;20048;-75
2022/03/09 12:52:44;;;;;;;8.48;1.48;;;16.60;99.90;;;;;;5093110;28;20036;-75
2022/03/09 12:55:12;;;;;;;9.32;1.98;;;16.60;99.90;;;;;;5091887;28;20012;-75
2022/03/09 12:57:39;;;;;;;9.48;1.67;;;16.60;99.90;;;;;;5092907;28;20519;-75
2022/03/09 13:00:17;;;;;;;11.25;1.55;;;16.60;99.90;;;;;;5092625;28;20024;-75
2022/03/09 13:02:55;;;;;;;6.43;1.10;;;16.60;99.90;;;;;;5091065;28;20472;-76